Archival Weather

Chicago O'Hare International

Chicago, Illinois (KORD)

Report from: Friday, September 23, 2022 12:51 PM CDT
Current time: Sunday, December 4, 2022 5:48 AM CST

Current weather
Weather history
Weather forecast

Temperature16.7°C (62.1°F)
Dew point5.0°C (41.0°F)
Winds 9 kts (4.6 m/s, 10.4 mph) Southeast (140°)
Visibility10 mi. (16.1 km)
Clouds Few clouds 4,000 ft. (1,219 m)
Ceiling: Broken clouds 21,000 ft. (6,401 m)
Overcast 25,000 ft. (7,620 m)
Altimeter30.20 in.Hg (1023 mB)
Relative humidity46 %
Density altitude12 ft. (4 m)
Sea-level pressure102.3 kPa (1023 mB, 30.20 in.Hg)
Max temp last 6 hours16.7°C (62.1°F)
Min temp last 6 hours11.1°C (52.0°F)
Remarks Automated weather observing station with precipitation discriminator
Pressure falling more quickly
Flight conditions Visual Meteorological Conditions
Raw dataKORD 231751Z 14009KT 10SM FEW040 BKN210 OVC250 17/05 A3020 RMK AO2 SLP228 T01670050 10167 20111 58021
An error has occurred. This application may no longer respond until reloaded. Reload 🗙